This is the latest recevied weather packets stored in our database for station/object LZ0VRC-10. If no packets are shown the sender has not sent any weather packets the latest 10 day(s).
| Time | Temp. | Humidity | Pressure | Rain* | Wind** | Luminosity | Snow |
|---|---|---|---|---|---|---|---|
| 1777459413 | 19.44° C | 45% | 1018.7 hPa | - | - | - | - |
| 1777458514 | 21.11° C | 43% | 1018.6 hPa | - | - | - | - |
| 1777457618 | 22.22° C | 37% | 1018.7 hPa | - | - | - | - |
| 1777457613 | 22.22° C | 37% | 1018.7 hPa | - | - | - | - |
| 1777456718 | 22.78° C | 36% | 1018.7 hPa | - | - | - | - |
| 1777456713 | 22.78° C | 36% | 1018.7 hPa | - | - | - | - |
| 1777455818 | 25.56° C | 31% | 1018.7 hPa | - | - | - | - |
| 1777455814 | 25.56° C | 31% | 1018.7 hPa | - | - | - | - |
| 1777454918 | 26.67° C | 30% | 1018.7 hPa | - | - | - | - |
| 1777454913 | 26.67° C | 30% | 1018.7 hPa | - | - | - | - |
| 1777454018 | 24.44° C | 34% | 1018.8 hPa | - | - | - | - |
| 1777454014 | 24.44° C | 34% | 1018.8 hPa | - | - | - | - |
| 1777453114 | 21.67° C | 40% | 1018.7 hPa | - | - | - | - |
| 1777452219 | 21.11° C | 43% | 1018.7 hPa | - | - | - | - |
| 1777452214 | 21.11° C | 43% | 1018.7 hPa | - | - | - | - |
| 1777451314 | 19.44° C | 47% | 1018.7 hPa | - | - | - | - |
| 1777450418 | 18.33° C | 54% | 1018.6 hPa | - | - | - | - |
| 1777450414 | 18.33° C | 54% | 1018.6 hPa | - | - | - | - |
| 1777449514 | 17.78° C | 55% | 1018.4 hPa | - | - | - | - |
| 1777448619 | 16.11° C | 59% | 1018.2 hPa | - | - | - | - |
| 1777448614 | 16.11° C | 59% | 1018.2 hPa | - | - | - | - |
| 1777447719 | 16.11° C | 58% | 1018.3 hPa | - | - | - | - |
| 1777447714 | 16.11° C | 58% | 1018.3 hPa | - | - | - | - |
| 1777446819 | 16.67° C | 60% | 1018.6 hPa | - | - | - | - |
| 1777446814 | 16.67° C | 60% | 1018.6 hPa | - | - | - | - |
* Rain since midnight (hover to see other rain measurements)
** Current wind speed in m/s (hover to see current wind gust speed)